Time;durP1;ratioP1;P1;durP2;ratioP2;P2;SDS_P1;SDS_P2;PMS_P1;PMS_P2;Temp;Humidity;BMP_temperature;BMP_pressure;BME280_temperature;BME280_humidity;BME280_pressure;Samples;Min_cycle;Max_cycle;Signal;HPM_P1;HPM_P2
2023/01/19 04:47:38;;;;;;;0.90;0.90;;;;;;;2.10;100.00;98773.16;5336679;33;33167;-82
2023/01/19 04:50:41;;;;;;;1.15;1.12;;;;;;;2.09;100.00;98760.06;5342945;33;34337;-83
2023/01/19 04:53:44;;;;;;;1.10;1.10;;;;;;;2.08;100.00;98761.91;5343196;33;33834;-83
2023/01/19 04:56:49;;;;;;;1.48;1.40;;;;;;;2.09;100.00;98752.94;5344993;33;33984;-82
2023/01/19 04:59:52;;;;;;;1.27;1.27;;;;;;;2.02;100.00;98770.53;5342310;33;33571;-82
2023/01/19 05:02:54;;;;;;;1.15;1.10;;;;;;;1.99;100.00;98770.81;5341711;33;34451;-83
2023/01/19 05:05:57;;;;;;;1.62;1.52;;;;;;;2.03;100.00;98782.78;5342946;33;34432;-82
2023/01/19 05:09:00;;;;;;;1.23;1.20;;;;;;;2.03;100.00;98791.56;5342631;33;34922;-82
2023/01/19 05:12:04;;;;;;;1.67;1.55;;;;;;;2.07;100.00;98809.84;5342501;33;34462;-81
2023/01/19 05:15:08;;;;;;;1.50;1.23;;;;;;;2.07;100.00;98805.34;5341119;33;34587;-81
2023/01/19 05:18:11;;;;;;;1.37;1.33;;;;;;;2.18;100.00;98797.06;5353015;33;35149;-81
2023/01/19 05:21:14;;;;;;;1.10;1.10;;;;;;;2.17;100.00;98789.28;5349500;33;34644;-81
2023/01/19 05:24:18;;;;;;;1.25;1.17;;;;;;;2.16;100.00;98807.03;5341455;33;33819;-81
2023/01/19 05:27:20;;;;;;;1.00;1.00;;;;;;;2.23;100.00;98817.84;5352088;33;34447;-81
2023/01/19 05:30:23;;;;;;;1.15;1.10;;;;;;;2.24;100.00;98825.63;5332434;33;33544;-81
2023/01/19 05:33:26;;;;;;;1.30;1.30;;;;;;;2.29;100.00;98826.97;5332380;33;33804;-81
2023/01/19 05:36:29;;;;;;;1.60;1.50;;;;;;;2.39;100.00;98833.78;5339962;33;33523;-81
2023/01/19 05:39:33;;;;;;;2.60;1.55;;;;;;;2.42;100.00;98829.97;5340605;33;34178;-81
2023/01/19 05:42:36;;;;;;;1.80;1.45;;;;;;;2.49;100.00;98831.00;5344845;33;33565;-81
2023/01/19 05:45:40;;;;;;;1.20;1.20;;;;;;;2.45;100.00;98832.31;5324655;33;32983;-81
2023/01/19 05:48:43;;;;;;;1.55;1.45;;;;;;;2.44;100.00;98828.81;5328907;33;33561;-81
2023/01/19 05:51:46;;;;;;;1.52;1.42;;;;;;;2.46;100.00;98808.25;5342468;33;34000;-81
2023/01/19 05:54:50;;;;;;;1.70;1.60;;;;;;;2.47;100.00;98801.94;5346787;33;33767;-81
2023/01/19 05:57:53;;;;;;;1.98;1.40;;;;;;;2.44;100.00;98812.06;5341197;33;34803;-80
2023/01/19 06:00:56;;;;;;;2.05;1.87;;;;;;;2.46;100.00;98813.56;5345673;33;34119;-81
2023/01/19 06:03:59;;;;;;;1.83;1.70;;;;;;;2.49;100.00;98785.84;5336040;33;33825;-81
2023/01/19 06:07:02;;;;;;;1.77;1.67;;;;;;;2.49;100.00;98777.88;5325370;33;34140;-81
2023/01/19 06:10:05;;;;;;;1.90;1.67;;;;;;;2.50;100.00;98788.31;5325531;33;33878;-81
2023/01/19 06:13:11;;;;;;;1.50;1.40;;;;;;;2.51;100.00;98797.13;5326840;33;35214;-81
2023/01/19 06:16:14;;;;;;;1.87;1.77;;;;;;;2.51;100.00;98791.81;5324435;33;33770;-81
2023/01/19 06:19:17;;;;;;;3.12;1.62;;;;;;;2.46;100.00;98776.38;5323866;33;34231;-81
2023/01/19 06:22:20;;;;;;;2.55;2.33;;;;;;;2.47;100.00;98779.84;5326252;33;34117;-81
2023/01/19 06:25:22;;;;;;;4.00;2.12;;;;;;;2.42;100.00;98790.97;5325725;33;33726;-81
2023/01/19 06:28:25;;;;;;;2.45;1.98;;;;;;;2.45;100.00;98787.97;5336591;33;33966;-81
2023/01/19 06:31:28;;;;;;;2.55;2.30;;;;;;;2.42;100.00;98775.03;5342357;33;34579;-81
2023/01/19 06:34:31;;;;;;;2.37;2.17;;;;;;;2.34;100.00;98772.41;5334085;33;33852;-85
2023/01/19 06:37:34;;;;;;;2.67;2.47;;;;;;;2.31;100.00;98775.38;5327580;33;34313;-85
2023/01/19 06:40:37;;;;;;;1.75;1.65;;;;;;;2.29;100.00;98789.81;5342871;33;34453;-86
2023/01/19 06:43:40;;;;;;;2.03;1.92;;;;;;;2.39;100.00;98804.56;5345703;33;33990;-85
2023/01/19 06:46:43;;;;;;;2.67;2.17;;;;;;;2.48;100.00;98816.03;5349275;33;34230;-82
2023/01/19 06:49:46;;;;;;;2.90;2.33;;;;;;;2.54;100.00;98822.53;5336535;33;34694;-81
2023/01/19 06:52:50;;;;;;;2.47;2.28;;;;;;;2.53;100.00;98832.31;5325059;33;34016;-82
2023/01/19 06:56:00;;;;;;;2.83;2.12;;;;;;;2.63;100.00;98811.75;5327883;33;33823;-81
2023/01/19 06:59:03;;;;;;;2.10;2.00;;;;;;;2.65;100.00;98809.75;5319440;33;276675;-80
2023/01/19 07:02:06;;;;;;;2.42;2.22;;;;;;;2.67;100.00;98809.59;5324067;33;33817;-80
2023/01/19 07:05:29;;;;;;;2.80;2.30;;;;;;;2.66;100.00;98818.53;5323490;33;33670;-80
2023/01/19 07:08:34;;;;;;;3.50;2.17;;;;;;;2.70;100.00;98802.13;5323398;33;33812;-81
2023/01/19 07:11:37;;;;;;;4.35;2.42;;;;;;;2.76;100.00;98800.62;5322122;33;34221;-80
2023/01/19 07:14:40;;;;;;;2.97;2.70;;;;;;;2.76;100.00;98794.47;5323190;33;35493;-81
2023/01/19 07:17:43;;;;;;;3.25;2.80;;;;;;;2.78;100.00;98789.81;5323651;33;33837;-81
2023/01/19 07:20:48;;;;;;;5.60;3.50;;;;;;;2.77;100.00;98788.16;5323541;33;34141;-81
2023/01/19 07:23:52;;;;;;;5.12;3.45;;;;;;;2.81;100.00;98797.44;5321789;33;33952;-81
2023/01/19 07:26:54;;;;;;;6.57;3.35;;;;;;;2.85;100.00;98820.06;5323741;33;33781;-81
2023/01/19 07:29:59;;;;;;;4.85;3.70;;;;;;;2.93;100.00;98831.50;5323030;33;35179;-81
2023/01/19 07:33:02;;;;;;;5.57;4.12;;;;;;;2.97;100.00;98831.19;5323221;33;33840;-81
2023/01/19 07:36:07;;;;;;;5.05;3.80;;;;;;;3.03;100.00;98828.66;5312710;33;34649;-81
2023/01/19 07:39:10;;;;;;;6.43;4.43;;;;;;;3.12;100.00;98822.34;5324617;33;33683;-82
2023/01/19 07:42:13;;;;;;;6.57;4.30;;;;;;;3.14;100.00;98824.84;5324959;33;33908;-82
2023/01/19 07:45:17;;;;;;;6.55;4.55;;;;;;;3.11;100.00;98827.84;5325834;33;33817;-81
2023/01/19 07:48:20;;;;;;;5.90;3.95;;;;;;;3.12;100.00;98827.66;5346489;33;33908;-80
2023/01/19 07:51:22;;;;;;;7.35;4.53;;;;;;;3.20;100.00;98828.66;5344059;33;34002;-82
2023/01/19 07:54:25;;;;;;;6.80;4.53;;;;;;;3.22;100.00;98823.97;5344330;33;33513;-82
2023/01/19 07:57:28;;;;;;;6.18;4.62;;;;;;;3.20;100.00;98842.78;5330142;33;32152;-82
2023/01/19 08:00:32;;;;;;;5.05;3.83;;;;;;;3.21;100.00;98836.44;5340671;33;33616;-82
2023/01/19 08:03:36;;;;;;;7.03;4.55;;;;;;;3.16;100.00;98842.28;5341838;33;33829;-82
2023/01/19 08:06:39;;;;;;;5.47;3.67;;;;;;;3.20;100.00;98832.16;5351060;33;32667;-82
2023/01/19 08:09:42;;;;;;;6.53;4.40;;;;;;;3.23;100.00;98845.09;5351693;33;34563;-80
2023/01/19 08:12:49;;;;;;;6.97;4.35;;;;;;;3.29;100.00;98838.28;5343323;33;33337;-80
2023/01/19 08:15:53;;;;;;;7.07;4.62;;;;;;;3.34;100.00;98823.47;5343059;33;34036;-80
2023/01/19 08:18:55;;;;;;;7.18;5.15;;;;;;;3.37;100.00;98817.81;5344535;33;34252;-80
2023/01/19 08:21:58;;;;;;;7.47;5.32;;;;;;;3.41;100.00;98823.62;5341119;33;33914;-81
2023/01/19 08:25:01;;;;;;;8.30;5.43;;;;;;;3.44;100.00;98815.28;5345365;33;33492;-80
2023/01/19 08:28:06;;;;;;;8.52;5.18;;;;;;;3.45;100.00;98816.12;5348394;33;33611;-84
2023/01/19 08:31:08;;;;;;;7.80;5.22;;;;;;;3.50;100.00;98821.78;5343580;33;34145;-85
2023/01/19 08:34:23;;;;;;;8.35;5.32;;;;;;;3.45;100.00;98818.78;5343248;33;33976;-81
2023/01/19 08:37:26;;;;;;;9.57;5.30;;;;;;;3.40;100.00;98822.78;5345276;33;33745;-82
2023/01/19 08:40:32;;;;;;;9.50;5.43;;;;;;;3.48;100.00;98835.25;5347792;33;33890;-81
2023/01/19 08:43:36;;;;;;;9.57;5.72;;;;;;;3.48;100.00;98834.41;5343127;33;33819;-84
2023/01/19 08:46:39;;;;;;;8.98;5.43;;;;;;;3.52;100.00;98841.06;5348837;33;33820;-82
2023/01/19 08:49:45;;;;;;;6.72;5.18;;;;;;;3.49;100.00;98834.25;5345052;33;34585;-84
2023/01/19 08:52:48;;;;;;;11.25;5.97;;;;;;;3.46;100.00;98833.75;5342947;33;33801;-81
2023/01/19 08:56:02;;;;;;;8.60;5.47;;;;;;;3.46;100.00;98847.06;5342847;33;33530;-83
2023/01/19 08:59:05;;;;;;;8.48;5.60;;;;;;;3.48;100.00;98851.22;5326946;33;33876;-82
2023/01/19 09:02:14;;;;;;;9.82;5.93;;;;;;;3.43;100.00;98837.59;5341090;33;33747;-83
2023/01/19 09:05:18;;;;;;;8.93;5.60;;;;;;;3.40;100.00;98832.59;5343151;33;34186;-82
2023/01/19 09:08:21;;;;;;;10.93;6.15;;;;;;;3.31;100.00;98836.28;5337299;33;33892;-81
2023/01/19 09:11:24;;;;;;;9.90;6.40;;;;;;;3.30;100.00;98832.78;5343342;33;34895;-83
2023/01/19 09:14:26;;;;;;;9.63;6.03;;;;;;;3.32;100.00;98830.78;5341989;33;34207;-84
2023/01/19 09:17:29;;;;;;;9.88;6.28;;;;;;;3.28;100.00;98821.50;5343490;33;34007;-83
2023/01/19 09:20:34;;;;;;;11.65;6.87;;;;;;;3.24;100.00;98829.97;5348190;33;33574;-85
2023/01/19 09:23:38;;;;;;;11.55;6.03;;;;;;;3.24;100.00;98841.44;5351872;33;34359;-84
2023/01/19 09:26:40;;;;;;;11.38;6.87;;;;;;;3.28;100.00;98841.94;5347924;33;33426;-85
2023/01/19 09:29:51;;;;;;;13.77;7.15;;;;;;;3.35;100.00;98842.91;5344612;33;34252;-83
2023/01/19 09:32:54;;;;;;;13.07;7.45;;;;;;;3.35;100.00;98838.44;5340522;33;32278;-83
2023/01/19 09:35:56;;;;;;;13.82;8.43;;;;;;;3.35;100.00;98826.97;5345366;33;33974;-83
2023/01/19 09:38:59;;;;;;;14.38;7.25;;;;;;;3.30;100.00;98835.44;5345892;33;34000;-84
2023/01/19 09:42:30;;;;;;;14.05;7.90;;;;;;;3.42;100.00;98838.56;5343826;33;34696;-83
2023/01/19 09:45:57;;;;;;;16.75;8.98;;;;;;;3.43;100.00;98842.91;5346134;33;33635;-83
2023/01/19 09:49:06;;;;;;;15.02;8.70;;;;;;;3.41;100.00;98840.41;5340790;33;33499;-85
2023/01/19 09:52:14;;;;;;;17.75;8.95;;;;;;;3.40;100.00;98825.44;5340397;33;33843;-84
2023/01/19 09:55:22;;;;;;;15.85;8.50;;;;;;;3.35;100.00;98826.97;5339903;33;34241;-83
2023/01/19 09:58:25;;;;;;;15.93;8.52;;;;;;;3.35;100.00;98841.09;5340836;33;34498;-83
2023/01/19 10:01:31;;;;;;;14.87;8.52;;;;;;;3.30;100.00;98843.41;5330254;33;33908;-83
2023/01/19 10:04:48;;;;;;;14.60;9.02;;;;;;;3.30;100.00;98837.28;5339023;33;34648;-84
2023/01/19 10:08:14;;;;;;;16.80;9.18;;;;;;;3.22;100.00;98839.94;5339995;33;33894;-83
2023/01/19 10:11:44;;;;;;;18.12;9.60;;;;;;;3.10;100.00;98842.97;5361228;33;33868;-83
2023/01/19 10:15:05;;;;;;;20.45;10.77;;;;;;;3.02;100.00;98850.94;5349509;33;33977;-83
2023/01/19 10:18:17;;;;;;;19.17;11.68;;;;;;;2.93;100.00;98847.47;5342192;33;33820;-83
2023/01/19 10:21:32;;;;;;;21.37;11.25;;;;;;;2.90;100.00;98855.75;5341142;33;33598;-83
2023/01/19 10:24:39;;;;;;;19.42;10.85;;;;;;;2.85;100.00;98859.91;5339993;33;33784;-83
2023/01/19 10:27:43;;;;;;;21.33;11.77;;;;;;;2.89;100.00;98864.72;5338743;33;33617;-87
2023/01/19 10:30:46;;;;;;;19.33;10.48;;;;;;;2.97;100.00;98860.41;5340992;33;35224;-88
2023/01/19 10:33:51;;;;;;;18.90;10.95;;;;;;;2.89;100.00;98854.09;5337308;33;33525;-88
2023/01/19 10:37:01;;;;;;;18.55;10.75;;;;;;;2.78;100.00;98857.09;5338631;33;33714;-84
2023/01/19 10:40:10;;;;;;;19.90;10.35;;;;;;;2.74;100.00;98855.75;5345185;33;34652;-83
2023/01/19 10:43:36;;;;;;;20.58;9.73;;;;;;;2.68;100.00;98861.72;5340808;33;33862;-83
2023/01/19 10:46:44;;;;;;;18.52;10.13;;;;;;;2.63;100.00;98867.56;5336629;33;33764;-83
2023/01/19 10:49:48;;;;;;;17.80;9.68;;;;;;;2.48;100.00;98870.00;5354044;33;32780;-83
2023/01/19 10:52:56;;;;;;;16.75;10.35;;;;;;;2.47;100.00;98868.34;5352942;33;33357;-82
2023/01/19 10:56:15;;;;;;;18.42;10.13;;;;;;;2.52;100.00;98875.00;5348204;33;34431;-82
2023/01/19 10:59:42;;;;;;;16.50;9.00;;;;;;;2.46;100.00;98874.66;5340616;33;33592;-82
2023/01/19 11:02:50;;;;;;;16.77;8.40;;;;;;;2.38;100.00;98871.97;5335479;33;33880;-83
2023/01/19 11:05:52;;;;;;;14.75;7.97;;;;;;;2.37;100.00;98874.78;5340546;33;35278;-82
2023/01/19 11:09:19;;;;;;;16.55;8.63;;;;;;;2.38;100.00;98877.28;5341798;33;35276;-82
2023/01/19 11:12:22;;;;;;;13.98;8.20;;;;;;;2.38;100.00;98887.91;5330492;33;33872;-82
2023/01/19 11:15:34;;;;;;;14.32;8.68;;;;;;;2.44;100.00;98879.28;5341278;33;34275;-83
2023/01/19 11:18:38;;;;;;;13.75;7.68;;;;;;;2.45;100.00;98869.50;5341707;33;34239;-83
2023/01/19 11:21:41;;;;;;;14.07;8.13;;;;;;;2.32;100.00;98867.31;5342041;33;33903;-83
2023/01/19 11:24:44;;;;;;;15.60;7.93;;;;;;;2.39;100.00;98878.94;5346749;33;32369;-83
2023/01/19 11:27:50;;;;;;;13.27;7.72;;;;;;;2.27;100.00;98866.97;5344866;33;34075;-84
2023/01/19 11:30:56;;;;;;;11.95;6.90;;;;;;;2.22;100.00;98869.25;5327000;33;33815;-84
2023/01/19 11:34:21;;;;;;;13.13;7.22;;;;;;;2.14;100.00;98867.44;5346786;33;33826;-84
2023/01/19 11:37:28;;;;;;;15.65;8.48;;;;;;;2.16;100.00;98872.56;5341299;33;33858;-84
2023/01/19 11:40:33;;;;;;;17.17;8.40;;;;;;;2.20;100.00;98876.59;5342334;33;33570;-83
2023/01/19 11:43:36;;;;;;;16.27;9.23;;;;;;;2.22;100.00;98887.84;5346182;33;34117;-84
2023/01/19 11:47:04;;;;;;;16.77;8.57;;;;;;;2.28;100.00;98887.19;5343560;33;33881;-84
2023/01/19 11:50:16;;;;;;;15.90;9.25;;;;;;;2.31;100.00;98883.41;5344244;33;34709;-83
2023/01/19 11:53:25;;;;;;;16.92;9.38;;;;;;;2.20;100.00;98888.03;5345533;33;34983;-84
2023/01/19 11:56:28;;;;;;;17.98;10.07;;;;;;;2.24;100.00;98883.22;5347056;33;33572;-83
2023/01/19 11:59:32;;;;;;;18.33;10.55;;;;;;;2.28;100.00;98892.50;5346637;33;33655;-83
2023/01/19 12:02:46;;;;;;;17.80;10.57;;;;;;;2.31;100.00;98894.88;5344679;33;34729;-83
2023/01/19 12:05:54;;;;;;;17.62;10.15;;;;;;;2.38;100.00;98908.34;5346926;33;34353;-83
2023/01/19 12:09:04;;;;;;;17.95;10.18;;;;;;;2.43;100.00;98912.16;5343667;33;33907;-83
2023/01/19 12:12:12;;;;;;;17.87;10.35;;;;;;;2.34;100.00;98907.84;5347812;33;33827;-83
2023/01/19 12:15:33;;;;;;;18.27;10.15;;;;;;;2.39;100.00;98912.63;5355749;33;35253;-84
2023/01/19 12:18:44;;;;;;;19.80;11.38;;;;;;;2.40;100.00;98915.16;5342583;33;34425;-83
2023/01/19 12:21:48;;;;;;;16.42;9.48;;;;;;;2.43;100.00;98919.31;5345992;33;33432;-83
2023/01/19 12:25:01;;;;;;;17.80;10.05;;;;;;;2.44;100.00;98923.63;5351017;33;34016;-83
2023/01/19 12:28:11;;;;;;;19.33;11.20;;;;;;;2.44;100.00;98928.94;5350271;33;33793;-82
2023/01/19 12:31:16;;;;;;;19.27;10.52;;;;;;;2.45;100.00;98934.06;5342741;33;33984;-82
2023/01/19 12:34:23;;;;;;;19.60;9.90;;;;;;;2.38;100.00;98935.72;5341147;33;33441;-83
2023/01/19 12:37:29;;;;;;;18.15;11.02;;;;;;;2.43;100.00;98943.22;5341597;33;33605;-83
2023/01/19 12:40:34;;;;;;;19.48;11.07;;;;;;;2.39;100.00;98936.53;5343567;33;33923;-83
2023/01/19 12:43:37;;;;;;;16.55;9.43;;;;;;;2.41;100.00;98945.19;5343160;33;34410;-82
2023/01/19 12:46:39;;;;;;;19.12;10.73;;;;;;;2.46;100.00;98950.84;5344543;33;33552;-82
2023/01/19 12:49:44;;;;;;;18.70;10.48;;;;;;;2.37;100.00;98955.31;5347502;33;35795;-82
2023/01/19 12:52:55;;;;;;;18.80;10.40;;;;;;;2.38;100.00;98951.66;5349107;33;34632;-82
2023/01/19 12:56:08;;;;;;;18.80;10.10;;;;;;;2.35;100.00;98957.28;5347898;33;35039;-82
2023/01/19 12:59:26;;;;;;;18.00;9.52;;;;;;;2.34;100.00;98968.06;5341726;33;34540;-82
2023/01/19 13:02:41;;;;;;;18.50;10.40;;;;;;;2.30;100.00;98970.19;5341479;33;33735;-82
2023/01/19 13:05:47;;;;;;;18.73;9.40;;;;;;;2.26;100.00;98975.00;5340547;33;33797;-83
2023/01/19 13:08:59;;;;;;;17.85;10.05;;;;;;;2.26;100.00;98976.84;5352019;33;34007;-83
2023/01/19 13:12:14;;;;;;;17.83;10.48;;;;;;;2.30;100.00;98990.62;5332676;33;33714;-83
2023/01/19 13:15:33;;;;;;;17.27;9.85;;;;;;;2.34;100.00;98990.16;5345855;33;34461;-84
2023/01/19 13:18:40;;;;;;;17.65;10.32;;;;;;;2.44;100.00;98998.81;5345894;33;32406;-84
2023/01/19 13:21:45;;;;;;;16.62;9.40;;;;;;;2.54;100.00;99016.44;5347537;33;34360;-84
2023/01/19 13:25:11;;;;;;;15.45;9.18;;;;;;;2.61;100.00;99022.81;5344312;33;34369;-84
2023/01/19 13:28:17;;;;;;;14.27;8.48;;;;;;;2.66;100.00;99031.97;5343046;33;34809;-83
2023/01/19 13:31:21;;;;;;;13.77;8.40;;;;;;;2.60;100.00;99031.75;5341911;33;34137;-84
2023/01/19 13:34:26;;;;;;;14.85;8.43;;;;;;;2.57;100.00;99040.03;5342896;33;33465;-84
2023/01/19 13:37:38;;;;;;;12.90;7.78;;;;;;;2.54;100.00;99040.34;5340545;33;33591;-84
2023/01/19 13:40:43;;;;;;;13.85;8.45;;;;;;;2.48;100.00;99052.44;5340942;33;34514;-85
2023/01/19 13:43:47;;;;;;;15.98;8.93;;;;;;;2.53;100.00;99051.97;5340440;33;33404;-84
2023/01/19 13:46:52;;;;;;;16.08;8.95;;;;;;;2.52;100.00;99058.28;5341695;33;34521;-84
2023/01/19 13:49:56;;;;;;;14.73;8.80;;;;;;;2.54;100.00;99065.09;5342112;33;33902;-82
2023/01/19 13:53:00;;;;;;;15.38;9.40;;;;;;;2.50;100.00;99069.91;5341168;33;33957;-82
2023/01/19 13:56:24;;;;;;;16.65;9.63;;;;;;;2.54;100.00;99082.84;5342527;33;34674;-82
2023/01/19 13:59:27;;;;;;;15.07;8.90;;;;;;;2.49;100.00;99083.34;5341827;33;34403;-82
2023/01/19 14:02:29;;;;;;;15.77;9.55;;;;;;;2.45;100.00;99092.59;5340006;33;34340;-82
2023/01/19 14:05:37;;;;;;;18.52;10.88;;;;;;;2.47;100.00;99088.81;5341519;33;34600;-82
2023/01/19 14:08:40;;;;;;;16.50;10.15;;;;;;;2.39;100.00;99101.22;5340884;33;34434;-83
2023/01/19 14:11:45;;;;;;;16.95;10.07;;;;;;;2.32;100.00;99097.53;5336971;33;33899;-83
2023/01/19 14:14:48;;;;;;;20.33;10.73;;;;;;;2.24;100.00;99099.13;5342031;33;33469;-83
2023/01/19 14:18:23;;;;;;;18.23;10.70;;;;;;;2.21;100.00;99096.78;5344919;33;33502;-86
2023/01/19 14:21:37;;;;;;;20.95;10.45;;;;;;;2.26;100.00;99086.53;5350439;33;34304;-83
2023/01/19 14:24:40;;;;;;;21.25;12.02;;;;;;;2.16;100.00;99080.47;5341076;33;34485;-83
2023/01/19 14:27:43;;;;;;;19.58;10.38;;;;;;;2.19;100.00;99079.34;5345943;33;34751;-82
2023/01/19 14:30:58;;;;;;;20.42;12.35;;;;;;;2.17;100.00;99076.84;5339757;33;34482;-81
2023/01/19 14:34:01;;;;;;;22.62;11.48;;;;;;;2.03;100.00;99074.75;5338933;33;34101;-82
2023/01/19 14:37:21;;;;;;;26.30;11.30;;;;;;;2.02;100.00;99092.50;5348223;33;33825;-82
2023/01/19 14:40:23;;;;;;;21.95;11.52;;;;;;;2.06;100.00;99100.16;5348036;33;34472;-83
2023/01/19 14:43:28;;;;;;;20.52;11.27;;;;;;;2.08;100.00;99104.34;5360544;33;33867;-85
2023/01/19 14:46:31;;;;;;;23.38;11.00;;;;;;;2.10;100.00;99099.69;5336888;33;33434;-84
2023/01/19 14:49:39;;;;;;;23.52;11.65;;;;;;;2.18;100.00;99118.34;5341032;33;34429;-84
2023/01/19 14:53:27;;;;;;;21.02;11.68;;;;;;;2.18;100.00;99123.66;5342171;33;35250;-84
2023/01/19 14:56:31;;;;;;;17.62;10.57;;;;;;;2.14;100.00;99126.78;5334187;33;34518;-85
2023/01/19 14:59:34;;;;;;;21.67;11.23;;;;;;;2.06;100.00;99132.03;5346319;33;34679;-84
2023/01/19 15:02:37;;;;;;;20.12;10.25;;;;;;;2.00;100.00;99129.00;5344055;33;33670;-84
2023/01/19 15:05:44;;;;;;;21.67;10.82;;;;;;;1.94;100.00;99147.34;5350809;33;35052;-88
2023/01/19 15:08:52;;;;;;;22.98;11.57;;;;;;;1.95;100.00;99162.28;5361473;33;34399;-89
2023/01/19 15:11:54;;;;;;;22.37;11.20;;;;;;;1.98;100.00;99175.25;5343544;33;33791;-85
2023/01/19 15:14:57;;;;;;;20.77;10.93;;;;;;;1.99;100.00;99196.34;5349760;33;34012;-86
2023/01/19 15:18:03;;;;;;;25.33;13.07;;;;;;;2.01;100.00;99196.19;5342966;33;35072;-83
2023/01/19 15:21:12;;;;;;;23.00;12.23;;;;;;;1.97;100.00;99206.28;5348675;33;34855;-84
2023/01/19 15:24:21;;;;;;;22.15;11.88;;;;;;;2.05;100.00;99192.25;5331056;33;32453;-86
2023/01/19 15:27:25;;;;;;;24.87;11.43;;;;;;;2.04;100.00;99190.56;5356447;33;34529;-86
2023/01/19 15:30:32;;;;;;;26.33;12.65;;;;;;;1.97;100.00;99179.72;5341277;33;34176;-82
2023/01/19 15:33:35;;;;;;;26.70;12.10;;;;;;;2.01;100.00;99185.56;5342907;33;34513;-87
2023/01/19 15:36:38;;;;;;;22.42;10.75;;;;;;;2.04;100.00;99198.53;5340896;33;33459;-82
2023/01/19 15:39:42;;;;;;;26.05;12.85;;;;;;;2.10;100.00;99197.09;5338665;33;34288;-83
2023/01/19 15:42:45;;;;;;;24.37;12.77;;;;;;;2.10;100.00;99211.19;5348568;33;33597;-85
2023/01/19 15:46:00;;;;;;;23.12;12.55;;;;;;;2.03;100.00;99226.91;5350776;33;33920;-83
2023/01/19 15:49:04;;;;;;;22.15;11.38;;;;;;;1.98;100.00;99210.56;5338857;33;34249;-82
2023/01/19 15:52:07;;;;;;;22.87;11.93;;;;;;;2.06;100.00;99198.38;5339801;33;33911;-83
2023/01/19 15:55:11;;;;;;;22.45;12.35;;;;;;;1.97;100.00;99205.44;5339913;33;34343;-83
2023/01/19 15:58:14;;;;;;;23.02;11.85;;;;;;;1.96;100.00;99211.72;5340783;33;33867;-84
2023/01/19 16:01:20;;;;;;;21.98;11.88;;;;;;;2.03;100.00;99226.91;5339364;33;35132;-84
2023/01/19 16:04:23;;;;;;;25.08;12.77;;;;;;;1.98;100.00;99223.84;5315159;33;32554;-84
2023/01/19 16:07:25;;;;;;;22.55;12.77;;;;;;;1.98;100.00;99245.09;5340314;33;34270;-85
2023/01/19 16:10:28;;;;;;;27.45;13.07;;;;;;;1.95;100.00;99260.47;5340783;33;33769;-84
2023/01/19 16:13:32;;;;;;;28.38;12.73;;;;;;;1.93;100.00;99262.44;5339690;33;34314;-85
2023/01/19 16:16:35;;;;;;;26.77;13.15;;;;;;;1.99;100.00;99256.53;5340288;33;34600;-85
2023/01/19 16:19:37;;;;;;;26.65;12.73;;;;;;;1.94;100.00;99266.78;5340607;33;33622;-84
2023/01/19 16:22:40;;;;;;;24.15;12.95;;;;;;;1.88;100.00;99289.44;5341814;33;33438;-85
2023/01/19 16:25:43;;;;;;;28.15;13.65;;;;;;;1.92;100.00;99301.44;5344499;33;33807;-85
2023/01/19 16:28:46;;;;;;;27.35;13.07;;;;;;;1.93;100.00;99305.78;5356774;33;35231;-84
2023/01/19 16:31:49;;;;;;;26.90;13.20;;;;;;;1.94;100.00;99295.97;5345052;33;33808;-84
2023/01/19 16:34:52;;;;;;;27.33;13.88;;;;;;;1.97;100.00;99316.91;5343217;33;34496;-84
2023/01/19 16:37:55;;;;;;;26.17;13.15;;;;;;;1.96;100.00;99317.88;5330403;33;32115;-84
2023/01/19 16:40:58;;;;;;;23.85;12.05;;;;;;;1.97;100.00;99323.06;5343268;33;33904;-84
2023/01/19 16:44:02;;;;;;;23.67;12.55;;;;;;;2.00;100.00;99329.91;5344001;33;34328;-83
2023/01/19 16:47:05;;;;;;;23.25;11.73;;;;;;;1.95;100.00;99340.09;5330024;33;32297;-84
2023/01/19 16:50:11;;;;;;;24.27;12.75;;;;;;;2.00;100.00;99351.13;5343433;33;33719;-84
2023/01/19 16:53:14;;;;;;;23.50;11.10;;;;;;;1.95;100.00;99367.47;5343260;33;33655;-88
